sensor_id;sensor_type;location;lat;lon;timestamp;pressure;altitude;pressure_sealevel;temperature;humidity
7662;BME280;30314;48.184;11.510;2023-08-06T00:00:52;95271.88;;;14.71;100.00
7662;BME280;30314;48.184;11.510;2023-08-06T00:03:18;95279.78;;;14.80;100.00
7662;BME280;30314;48.184;11.510;2023-08-06T00:05:45;95285.53;;;14.82;100.00
7662;BME280;30314;48.184;11.510;2023-08-06T00:08:11;95265.53;;;14.63;100.00
7662;BME280;30314;48.184;11.510;2023-08-06T00:10:39;95290.84;;;14.82;100.00
7662;BME280;30314;48.184;11.510;2023-08-06T00:13:07;95281.72;;;14.71;100.00
7662;BME280;30314;48.184;11.510;2023-08-06T00:15:34;95283.94;;;14.69;100.00
7662;BME280;30314;48.184;11.510;2023-08-06T00:18:00;95274.66;;;14.75;100.00
7662;BME280;30314;48.184;11.510;2023-08-06T00:20:27;95262.09;;;14.63;100.00
7662;BME280;30314;48.184;11.510;2023-08-06T00:22:53;95281.06;;;14.74;100.00
7662;BME280;30314;48.184;11.510;2023-08-06T00:25:20;95282.25;;;14.64;100.00
7662;BME280;30314;48.184;11.510;2023-08-06T00:27:46;95259.25;;;14.47;100.00
7662;BME280;30314;48.184;11.510;2023-08-06T00:30:14;95278.84;;;14.63;100.00
7662;BME280;30314;48.184;11.510;2023-08-06T00:32:41;95279.59;;;14.43;100.00
7662;BME280;30314;48.184;11.510;2023-08-06T00:35:07;95282.97;;;14.31;100.00
7662;BME280;30314;48.184;11.510;2023-08-06T00:37:34;95275.25;;;14.17;100.00
7662;BME280;30314;48.184;11.510;2023-08-06T00:40:00;95272.28;;;14.09;100.00
7662;BME280;30314;48.184;11.510;2023-08-06T00:42:27;95254.94;;;13.91;100.00
7662;BME280;30314;48.184;11.510;2023-08-06T00:44:54;95261.03;;;13.82;100.00
7662;BME280;30314;48.184;11.510;2023-08-06T00:47:20;95263.25;;;13.80;100.00
7662;BME280;30314;48.184;11.510;2023-08-06T00:49:47;95278.53;;;13.84;100.00
7662;BME280;30314;48.184;11.510;2023-08-06T00:52:14;95270.06;;;13.90;100.00
7662;BME280;30314;48.184;11.510;2023-08-06T00:54:40;95268.50;;;13.89;100.00
7662;BME280;30314;48.184;11.510;2023-08-06T00:57:09;95261.97;;;13.87;100.00
7662;BME280;30314;48.184;11.510;2023-08-06T00:59:36;95252.91;;;13.88;100.00
7662;BME280;30314;48.184;11.510;2023-08-06T01:02:03;95242.94;;;13.85;100.00
7662;BME280;30314;48.184;11.510;2023-08-06T01:04:30;95246.97;;;13.91;100.00
7662;BME280;30314;48.184;11.510;2023-08-06T01:10:01;95250.72;;;13.90;100.00
7662;BME280;30314;48.184;11.510;2023-08-06T01:12:45;95247.78;;;13.82;100.00
7662;BME280;30314;48.184;11.510;2023-08-06T01:15:22;95255.94;;;13.77;100.00
7662;BME280;30314;48.184;11.510;2023-08-06T01:17:51;95256.03;;;13.90;100.00
7662;BME280;30314;48.184;11.510;2023-08-06T01:20:18;95251.38;;;13.87;100.00
7662;BME280;30314;48.184;11.510;2023-08-06T01:22:45;95242.94;;;13.85;100.00
7662;BME280;30314;48.184;11.510;2023-08-06T01:25:15;95246.22;;;13.81;100.00
7662;BME280;30314;48.184;11.510;2023-08-06T01:27:49;95239.50;;;13.84;100.00
7662;BME280;30314;48.184;11.510;2023-08-06T01:30:26;95240.31;;;13.76;100.00
7662;BME280;30314;48.184;11.510;2023-08-06T01:32:58;95235.94;;;13.80;100.00
7662;BME280;30314;48.184;11.510;2023-08-06T01:35:27;95232.19;;;13.81;100.00
7662;BME280;30314;48.184;11.510;2023-08-06T01:37:54;95217.44;;;13.71;100.00
7662;BME280;30314;48.184;11.510;2023-08-06T01:40:22;95224.41;;;13.76;100.00
7662;BME280;30314;48.184;11.510;2023-08-06T01:42:49;95224.81;;;13.87;100.00
7662;BME280;30314;48.184;11.510;2023-08-06T01:45:15;95219.44;;;13.74;100.00
7662;BME280;30314;48.184;11.510;2023-08-06T01:47:42;95230.94;;;13.78;100.00
7662;BME280;30314;48.184;11.510;2023-08-06T01:50:09;95225.00;;;13.81;100.00
7662;BME280;30314;48.184;11.510;2023-08-06T01:52:35;95223.78;;;13.79;100.00
7662;BME280;30314;48.184;11.510;2023-08-06T01:55:02;95228.25;;;13.87;100.00
7662;BME280;30314;48.184;11.510;2023-08-06T01:57:28;95221.25;;;13.82;100.00
7662;BME280;30314;48.184;11.510;2023-08-06T01:59:55;95219.56;;;13.78;100.00
7662;BME280;30314;48.184;11.510;2023-08-06T02:02:22;95216.59;;;13.79;100.00
7662;BME280;30314;48.184;11.510;2023-08-06T02:04:49;95213.97;;;13.71;100.00
7662;BME280;30314;48.184;11.510;2023-08-06T02:07:16;95221.56;;;13.81;100.00
7662;BME280;30314;48.184;11.510;2023-08-06T02:09:42;95204.63;;;13.73;100.00
7662;BME280;30314;48.184;11.510;2023-08-06T02:12:09;95198.66;;;13.76;100.00
7662;BME280;30314;48.184;11.510;2023-08-06T02:14:35;95201.75;;;13.78;100.00
7662;BME280;30314;48.184;11.510;2023-08-06T02:17:02;95195.84;;;13.73;100.00
7662;BME280;30314;48.184;11.510;2023-08-06T02:19:28;95202.84;;;13.77;100.00
7662;BME280;30314;48.184;11.510;2023-08-06T02:21:55;95192.56;;;13.76;100.00
7662;BME280;30314;48.184;11.510;2023-08-06T02:24:21;95197.56;;;13.77;100.00
7662;BME280;30314;48.184;11.510;2023-08-06T02:26:48;95182.72;;;13.76;100.00
7662;BME280;30314;48.184;11.510;2023-08-06T02:29:18;95182.88;;;13.80;100.00
7662;BME280;30314;48.184;11.510;2023-08-06T02:31:44;95177.44;;;13.76;100.00
7662;BME280;30314;48.184;11.510;2023-08-06T02:34:11;95170.19;;;13.64;100.00
7662;BME280;30314;48.184;11.510;2023-08-06T02:36:38;95156.84;;;13.52;100.00
7662;BME280;30314;48.184;11.510;2023-08-06T02:39:05;95158.63;;;13.60;100.00
7662;BME280;30314;48.184;11.510;2023-08-06T02:41:32;95162.38;;;13.59;100.00
7662;BME280;30314;48.184;11.510;2023-08-06T02:43:58;95163.94;;;13.60;100.00
7662;BME280;30314;48.184;11.510;2023-08-06T02:46:26;95157.88;;;13.60;100.00
7662;BME280;30314;48.184;11.510;2023-08-06T02:48:52;95153.00;;;13.62;100.00
7662;BME280;30314;48.184;11.510;2023-08-06T02:51:19;95116.75;;;13.45;100.00
7662;BME280;30314;48.184;11.510;2023-08-06T02:53:47;95136.38;;;13.52;100.00
7662;BME280;30314;48.184;11.510;2023-08-06T02:56:15;95146.97;;;13.52;100.00
7662;BME280;30314;48.184;11.510;2023-08-06T02:58:53;95150.09;;;13.55;100.00
7662;BME280;30314;48.184;11.510;2023-08-06T03:01:30;95145.28;;;13.48;100.00
7662;BME280;30314;48.184;11.510;2023-08-06T03:04:04;95152.47;;;13.47;100.00
7662;BME280;30314;48.184;11.510;2023-08-06T03:06:35;95147.03;;;13.44;100.00
7662;BME280;30314;48.184;11.510;2023-08-06T03:09:03;95140.03;;;13.39;100.00
7662;BME280;30314;48.184;11.510;2023-08-06T03:11:30;95137.44;;;13.30;100.00
7662;BME280;30314;48.184;11.510;2023-08-06T03:14:02;95161.13;;;13.35;100.00
7662;BME280;30314;48.184;11.510;2023-08-06T03:16:30;95166.91;;;13.37;100.00
7662;BME280;30314;48.184;11.510;2023-08-06T03:18:57;95166.84;;;13.46;100.00
7662;BME280;30314;48.184;11.510;2023-08-06T03:21:24;95163.44;;;13.37;100.00
7662;BME280;30314;48.184;11.510;2023-08-06T03:23:51;95157.69;;;13.35;100.00
7662;BME280;30314;48.184;11.510;2023-08-06T03:26:22;95164.25;;;13.29;100.00
7662;BME280;30314;48.184;11.510;2023-08-06T03:28:48;95160.06;;;13.28;100.00
7662;BME280;30314;48.184;11.510;2023-08-06T03:31:15;95159.16;;;13.23;100.00
7662;BME280;30314;48.184;11.510;2023-08-06T03:33:44;95163.16;;;13.30;100.00
7662;BME280;30314;48.184;11.510;2023-08-06T03:36:14;95156.81;;;13.22;100.00
7662;BME280;30314;48.184;11.510;2023-08-06T03:38:42;95149.19;;;13.20;100.00
7662;BME280;30314;48.184;11.510;2023-08-06T03:41:11;95156.03;;;13.21;100.00
7662;BME280;30314;48.184;11.510;2023-08-06T03:43:38;95147.16;;;13.17;100.00
7662;BME280;30314;48.184;11.510;2023-08-06T03:46:08;95151.84;;;13.20;100.00
7662;BME280;30314;48.184;11.510;2023-08-06T03:48:36;95134.09;;;13.12;100.00
7662;BME280;30314;48.184;11.510;2023-08-06T03:51:03;95142.50;;;13.14;100.00
7662;BME280;30314;48.184;11.510;2023-08-06T03:53:29;95138.50;;;13.08;100.00
7662;BME280;30314;48.184;11.510;2023-08-06T03:55:57;95137.09;;;13.02;100.00
7662;BME280;30314;48.184;11.510;2023-08-06T03:58:26;95143.16;;;13.11;100.00
7662;BME280;30314;48.184;11.510;2023-08-06T04:01:00;95135.69;;;13.04;100.00
7662;BME280;30314;48.184;11.510;2023-08-06T04:03:31;95141.78;;;13.05;100.00
7662;BME280;30314;48.184;11.510;2023-08-06T04:05:59;95138.50;;;13.08;100.00
7662;BME280;30314;48.184;11.510;2023-08-06T04:08:27;95133.63;;;13.10;100.00
7662;BME280;30314;48.184;11.510;2023-08-06T04:10:54;95132.53;;;13.11;100.00
7662;BME280;30314;48.184;11.510;2023-08-06T04:13:20;95124.50;;;12.99;100.00
7662;BME280;30314;48.184;11.510;2023-08-06T04:15:47;95132.91;;;13.01;100.00
7662;BME280;30314;48.184;11.510;2023-08-06T04:18:14;95136.47;;;13.05;100.00
7662;BME280;30314;48.184;11.510;2023-08-06T04:20:45;95135.09;;;12.99;100.00
7662;BME280;30314;48.184;11.510;2023-08-06T04:23:12;95131.69;;;12.98;100.00
7662;BME280;30314;48.184;11.510;2023-08-06T04:25:39;95141.59;;;13.10;100.00
7662;BME280;30314;48.184;11.510;2023-08-06T04:28:06;95141.91;;;13.08;100.00
7662;BME280;30314;48.184;11.510;2023-08-06T04:30:33;95144.69;;;13.12;100.00
7662;BME280;30314;48.184;11.510;2023-08-06T04:33:01;95148.44;;;13.11;100.00
7662;BME280;30314;48.184;11.510;2023-08-06T04:35:28;95148.59;;;13.15;100.00
7662;BME280;30314;48.184;11.510;2023-08-06T04:37:55;95139.53;;;13.16;100.00
7662;BME280;30314;48.184;11.510;2023-08-06T04:40:22;95148.09;;;13.21;100.00
7662;BME280;30314;48.184;11.510;2023-08-06T04:42:49;95153.72;;;13.20;100.00
7662;BME280;30314;48.184;11.510;2023-08-06T04:45:17;95151.34;;;13.27;100.00
7662;BME280;30314;48.184;11.510;2023-08-06T04:47:43;95147.59;;;13.28;100.00
7662;BME280;30314;48.184;11.510;2023-08-06T04:50:10;95154.03;;;13.18;100.00
7662;BME280;30314;48.184;11.510;2023-08-06T04:52:37;95147.81;;;13.14;100.00
7662;BME280;30314;48.184;11.510;2023-08-06T04:55:04;95149.91;;;13.30;100.00
7662;BME280;30314;48.184;11.510;2023-08-06T04:57:32;95153.66;;;13.29;100.00
7662;BME280;30314;48.184;11.510;2023-08-06T04:59:59;95143.56;;;13.22;100.00
7662;BME280;30314;48.184;11.510;2023-08-06T05:02:25;95142.16;;;13.24;100.00
7662;BME280;30314;48.184;11.510;2023-08-06T05:04:52;95147.91;;;13.27;100.00
7662;BME280;30314;48.184;11.510;2023-08-06T05:07:19;95117.53;;;13.15;100.00
7662;BME280;30314;48.184;11.510;2023-08-06T05:09:45;95151.28;;;13.36;100.00
7662;BME280;30314;48.184;11.510;2023-08-06T05:12:12;95142.28;;;13.28;100.00
7662;BME280;30314;48.184;11.510;2023-08-06T05:14:38;95133.38;;;13.33;100.00
7662;BME280;30314;48.184;11.510;2023-08-06T05:17:05;95133.53;;;13.28;100.00
7662;BME280;30314;48.184;11.510;2023-08-06T05:19:31;95134.66;;;13.27;100.00
7662;BME280;30314;48.184;11.510;2023-08-06T05:21:58;95134.13;;;13.33;100.00
7662;BME280;30314;48.184;11.510;2023-08-06T05:24:25;95140.88;;;13.31;100.00
7662;BME280;30314;48.184;11.510;2023-08-06T05:26:51;95133.41;;;13.24;100.00
7662;BME280;30314;48.184;11.510;2023-08-06T05:29:18;95149.78;;;13.26;100.00
7662;BME280;30314;48.184;11.510;2023-08-06T05:31:44;95147.13;;;13.26;100.00
7662;BME280;30314;48.184;11.510;2023-08-06T05:34:11;95142.16;;;13.24;100.00
7662;BME280;30314;48.184;11.510;2023-08-06T05:36:38;95152.38;;;13.35;100.00
7662;BME280;30314;48.184;11.510;2023-08-06T05:39:04;95146.00;;;13.36;100.00
7662;BME280;30314;48.184;11.510;2023-08-06T05:41:31;95153.75;;;13.41;100.00
7662;BME280;30314;48.184;11.510;2023-08-06T05:43:57;95154.25;;;13.34;100.00
7662;BME280;30314;48.184;11.510;2023-08-06T05:46:25;95147.69;;;13.41;100.00
7662;BME280;30314;48.184;11.510;2023-08-06T05:48:51;95155.13;;;13.47;100.00
7662;BME280;30314;48.184;11.510;2023-08-06T05:51:18;95148.38;;;13.50;100.00
7662;BME280;30314;48.184;11.510;2023-08-06T05:53:45;95144.97;;;13.49;100.00
7662;BME280;30314;48.184;11.510;2023-08-06T05:56:13;95154.63;;;13.54;100.00
7662;BME280;30314;48.184;11.510;2023-08-06T05:58:40;95151.63;;;13.56;100.00
7662;BME280;30314;48.184;11.510;2023-08-06T06:01:07;95151.00;;;13.59;100.00
7662;BME280;30314;48.184;11.510;2023-08-06T06:03:33;95145.22;;;13.57;100.00
7662;BME280;30314;48.184;11.510;2023-08-06T06:06:03;95142.41;;;13.62;100.00
7662;BME280;30314;48.184;11.510;2023-08-06T06:08:30;95145.31;;;13.69;100.00
7662;BME280;30314;48.184;11.510;2023-08-06T06:10:56;95143.75;;;13.68;100.00
7662;BME280;30314;48.184;11.510;2023-08-06T06:13:24;95152.16;;;13.70;100.00
7662;BME280;30314;48.184;11.510;2023-08-06T06:15:54;95152.59;;;13.81;100.00
7662;BME280;30314;48.184;11.510;2023-08-06T06:18:22;95142.22;;;13.88;100.00
7662;BME280;30314;48.184;11.510;2023-08-06T06:20:49;95149.84;;;13.90;100.00
7662;BME280;30314;48.184;11.510;2023-08-06T06:23:15;95132.38;;;13.89;100.00
7662;BME280;30314;48.184;11.510;2023-08-06T06:25:43;95155.63;;;13.92;100.00
7662;BME280;30314;48.184;11.510;2023-08-06T06:28:10;95156.00;;;14.03;100.00
7662;BME280;30314;48.184;11.510;2023-08-06T06:30:36;95145.84;;;14.05;100.00
7662;BME280;30314;48.184;11.510;2023-08-06T06:33:03;95160.16;;;14.13;100.00
7662;BME280;30314;48.184;11.510;2023-08-06T06:35:29;95136.06;;;13.97;100.00
7662;BME280;30314;48.184;11.510;2023-08-06T06:37:57;95150.06;;;14.06;100.00
7662;BME280;30314;48.184;11.510;2023-08-06T06:40:23;95149.72;;;14.07;100.00
7662;BME280;30314;48.184;11.510;2023-08-06T06:42:50;95154.56;;;14.05;100.00
7662;BME280;30314;48.184;11.510;2023-08-06T06:45:16;95158.41;;;14.17;100.00
7662;BME280;30314;48.184;11.510;2023-08-06T06:47:43;95151.84;;;13.93;100.00
7662;BME280;30314;48.184;11.510;2023-08-06T06:50:10;95139.50;;;13.97;100.00
7662;BME280;30314;48.184;11.510;2023-08-06T06:52:37;95155.03;;;14.07;100.00
7662;BME280;30314;48.184;11.510;2023-08-06T06:55:04;95154.97;;;14.16;100.00
7662;BME280;30314;48.184;11.510;2023-08-06T06:57:30;95157.22;;;14.05;100.00
7662;BME280;30314;48.184;11.510;2023-08-06T06:59:57;95162.63;;;14.18;100.00
7662;BME280;30314;48.184;11.510;2023-08-06T07:02:24;95155.56;;;14.22;100.00
7662;BME280;30314;48.184;11.510;2023-08-06T07:04:50;95151.78;;;14.23;100.00
7662;BME280;30314;48.184;11.510;2023-08-06T07:07:17;95151.78;;;14.23;100.00
7662;BME280;30314;48.184;11.510;2023-08-06T07:09:44;95148.78;;;14.46;100.00
7662;BME280;30314;48.184;11.510;2023-08-06T07:12:11;95150.47;;;14.50;100.00
7662;BME280;30314;48.184;11.510;2023-08-06T07:14:37;95148.78;;;14.46;100.00
7662;BME280;30314;48.184;11.510;2023-08-06T07:17:05;95166.41;;;14.50;100.00
7662;BME280;30314;48.184;11.510;2023-08-06T07:19:32;95156.63;;;14.42;100.00
7662;BME280;30314;48.184;11.510;2023-08-06T07:21:58;95171.97;;;14.36;100.00
7662;BME280;30314;48.184;11.510;2023-08-06T07:24:25;95155.59;;;14.34;100.00
7662;BME280;30314;48.184;11.510;2023-08-06T07:26:51;95161.13;;;14.29;100.00
7662;BME280;30314;48.184;11.510;2023-08-06T07:29:19;95163.06;;;14.20;100.00
7662;BME280;30314;48.184;11.510;2023-08-06T07:31:48;95166.84;;;14.19;100.00
7662;BME280;30314;48.184;11.510;2023-08-06T07:34:16;95158.41;;;14.17;100.00
7662;BME280;30314;48.184;11.510;2023-08-06T07:36:46;95153.03;;;14.26;100.00
7662;BME280;30314;48.184;11.510;2023-08-06T07:39:12;95152.50;;;14.11;100.00
7662;BME280;30314;48.184;11.510;2023-08-06T07:41:39;95134.00;;;14.02;100.00
7662;BME280;30314;48.184;11.510;2023-08-06T07:44:07;95143.78;;;14.11;100.00
7662;BME280;30314;48.184;11.510;2023-08-06T07:46:34;95152.72;;;14.06;100.00
7662;BME280;30314;48.184;11.510;2023-08-06T07:49:00;95148.75;;;14.12;100.00
7662;BME280;30314;48.184;11.510;2023-08-06T07:51:27;95133.28;;;14.14;100.00
7662;BME280;30314;48.184;11.510;2023-08-06T07:53:53;95137.19;;;14.17;100.00
7662;BME280;30314;48.184;11.510;2023-08-06T07:56:20;95139.16;;;14.20;100.00
7662;BME280;30314;48.184;11.510;2023-08-06T07:58:48;95144.94;;;14.22;100.00
7662;BME280;30314;48.184;11.510;2023-08-06T08:01:14;95138.13;;;14.33;100.00
7662;BME280;30314;48.184;11.510;2023-08-06T08:03:41;95142.97;;;14.31;100.00
7662;BME280;30314;48.184;11.510;2023-08-06T08:06:07;95139.34;;;14.36;100.00
7662;BME280;30314;48.184;11.510;2023-08-06T08:08:34;95146.53;;;14.35;100.00
7662;BME280;30314;48.184;11.510;2023-08-06T08:11:05;95134.78;;;14.36;100.00
7662;BME280;30314;48.184;11.510;2023-08-06T08:13:32;95144.78;;;14.40;100.00
7662;BME280;30314;48.184;11.510;2023-08-06T08:15:59;95129.19;;;14.50;100.00
7662;BME280;30314;48.184;11.510;2023-08-06T08:18:26;95139.34;;;14.82;100.00
7662;BME280;30314;48.184;11.510;2023-08-06T08:20:52;95139.38;;;14.94;100.00
7662;BME280;30314;48.184;11.510;2023-08-06T08:23:19;95131.28;;;15.16;100.00
7662;BME280;30314;48.184;11.510;2023-08-06T08:25:45;95122.19;;;15.17;100.00
7662;BME280;30314;48.184;11.510;2023-08-06T08:28:12;95127.19;;;15.06;100.00
7662;BME280;30314;48.184;11.510;2023-08-06T08:30:40;95127.94;;;15.06;100.00
7662;BME280;30314;48.184;11.510;2023-08-06T08:33:07;95123.97;;;15.00;100.00
7662;BME280;30314;48.184;11.510;2023-08-06T08:35:36;95133.94;;;14.91;100.00
7662;BME280;30314;48.184;11.510;2023-08-06T08:38:03;95124.69;;;14.76;100.00
7662;BME280;30314;48.184;11.510;2023-08-06T08:40:32;95113.41;;;14.67;100.00
7662;BME280;30314;48.184;11.510;2023-08-06T08:42:59;95114.19;;;14.67;100.00
7662;BME280;30314;48.184;11.510;2023-08-06T08:45:28;95126.28;;;14.77;100.00
7662;BME280;30314;48.184;11.510;2023-08-06T08:47:56;95133.03;;;14.87;100.00
7662;BME280;30314;48.184;11.510;2023-08-06T08:50:22;95128.72;;;14.82;100.00
7662;BME280;30314;48.184;11.510;2023-08-06T08:52:50;95136.47;;;14.87;100.00
7662;BME280;30314;48.184;11.510;2023-08-06T08:55:17;95134.16;;;14.86;100.00
7662;BME280;30314;48.184;11.510;2023-08-06T08:57:44;95131.94;;;14.88;100.00
7662;BME280;30314;48.184;11.510;2023-08-06T09:00:11;95134.25;;;14.89;100.00
7662;BME280;30314;48.184;11.510;2023-08-06T09:02:37;95124.94;;;14.83;100.00
7662;BME280;30314;48.184;11.510;2023-08-06T09:05:06;95134.44;;;14.72;100.00
7662;BME280;30314;48.184;11.510;2023-08-06T09:07:42;95137.56;;;14.74;100.00
7662;BME280;30314;48.184;11.510;2023-08-06T09:10:11;95130.81;;;14.76;100.00
7662;BME280;30314;48.184;11.510;2023-08-06T09:12:38;95133.34;;;14.73;100.00
7662;BME280;30314;48.184;11.510;2023-08-06T09:15:05;95151.81;;;14.69;100.00
7662;BME280;30314;48.184;11.510;2023-08-06T09:17:32;95139.28;;;14.57;100.00
7662;BME280;30314;48.184;11.510;2023-08-06T09:19:58;95156.91;;;14.62;100.00
7662;BME280;30314;48.184;11.510;2023-08-06T09:22:33;95159.13;;;14.60;100.00
7662;BME280;30314;48.184;11.510;2023-08-06T09:25:00;95156.91;;;14.62;100.00
7662;BME280;30314;48.184;11.510;2023-08-06T09:27:27;95152.25;;;14.59;100.00
7662;BME280;30314;48.184;11.510;2023-08-06T09:29:53;95154.56;;;14.60;100.00
7662;BME280;30314;48.184;11.510;2023-08-06T09:32:21;95150.72;;;14.58;100.00
7662;BME280;30314;48.184;11.510;2023-08-06T09:34:55;95158.78;;;14.61;100.00
7662;BME280;30314;48.184;11.510;2023-08-06T09:37:22;95139.28;;;14.57;100.00
7662;BME280;30314;48.184;11.510;2023-08-06T09:39:49;95158.59;;;14.67;100.00
7662;BME280;30314;48.184;11.510;2023-08-06T09:42:16;95156.91;;;14.62;100.00
7662;BME280;30314;48.184;11.510;2023-08-06T09:44:43;95151.72;;;14.65;100.00
7662;BME280;30314;48.184;11.510;2023-08-06T09:47:09;95150.19;;;14.64;100.00
7662;BME280;30314;48.184;11.510;2023-08-06T09:52:03;95143.81;;;14.57;100.00
7662;BME280;30314;48.184;11.510;2023-08-06T09:54:32;95143.75;;;14.65;100.00
7662;BME280;30314;48.184;11.510;2023-08-06T09:57:00;95159.38;;;14.79;100.00
7662;BME280;30314;48.184;11.510;2023-08-06T09:59:27;95150.06;;;14.73;100.00
7662;BME280;30314;48.184;11.510;2023-08-06T10:01:54;95150.19;;;14.64;100.00
7662;BME280;30314;48.184;11.510;2023-08-06T10:04:23;95172.06;;;14.61;100.00
7662;BME280;30314;48.184;11.510;2023-08-06T10:06:59;95175.19;;;14.63;100.00
7662;BME280;30314;48.184;11.510;2023-08-06T10:09:25;95161.91;;;14.63;100.00
7662;BME280;30314;48.184;11.510;2023-08-06T10:11:52;95169.56;;;14.77;100.00
7662;BME280;30314;48.184;11.510;2023-08-06T10:14:25;95175.69;;;14.78;100.00
7662;BME280;30314;48.184;11.510;2023-08-06T10:16:54;95171.47;;;14.77;100.00
7662;BME280;30314;48.184;11.510;2023-08-06T10:19:23;95164.94;;;14.87;100.00
7662;BME280;30314;48.184;11.510;2023-08-06T10:22:16;95163.97;;;15.16;100.00
7662;BME280;30314;48.184;11.510;2023-08-06T10:25:00;95162.09;;;15.29;100.00
7662;BME280;30314;48.184;11.510;2023-08-06T10:30:29;95162.88;;;15.42;100.00
7662;BME280;30314;48.184;11.510;2023-08-06T10:33:01;95167.72;;;15.40;100.00
7662;BME280;30314;48.184;11.510;2023-08-06T10:35:44;95171.50;;;15.27;100.00
7662;BME280;30314;48.184;11.510;2023-08-06T10:38:16;95170.31;;;15.24;100.00
7662;BME280;30314;48.184;11.510;2023-08-06T10:45:57;95162.41;;;15.40;100.00
7662;BME280;30314;48.184;11.510;2023-08-06T10:48:33;95177.75;;;15.43;100.00
7662;BME280;30314;48.184;11.510;2023-08-06T10:51:01;95175.75;;;15.53;100.00
7662;BME280;30314;48.184;11.510;2023-08-06T10:53:28;95181.34;;;15.76;100.00
7662;BME280;30314;48.184;11.510;2023-08-06T10:55:59;95165.28;;;15.85;100.00
7662;BME280;30314;48.184;11.510;2023-08-06T10:58:34;95188.44;;;15.97;100.00
7662;BME280;30314;48.184;11.510;2023-08-06T11:01:01;95168.91;;;16.05;100.00
7662;BME280;30314;48.184;11.510;2023-08-06T11:03:28;95173.03;;;15.90;100.00
7662;BME280;30314;48.184;11.510;2023-08-06T11:05:55;95167.13;;;15.97;100.00
7662;BME280;30314;48.184;11.510;2023-08-06T11:08:34;95171.03;;;15.87;100.00
7662;BME280;30314;48.184;11.510;2023-08-06T11:11:12;95171.47;;;15.89;100.00
7662;BME280;30314;48.184;11.510;2023-08-06T11:13:44;95168.38;;;15.87;100.00
7662;BME280;30314;48.184;11.510;2023-08-06T11:16:15;95179.50;;;15.64;100.00
7662;BME280;30314;48.184;11.510;2023-08-06T11:18:43;95188.38;;;15.68;100.00
7662;BME280;30314;48.184;11.510;2023-08-06T11:21:10;95180.28;;;15.77;100.00
7662;BME280;30314;48.184;11.510;2023-08-06T11:23:38;95185.25;;;15.66;100.00
7662;BME280;30314;48.184;11.510;2023-08-06T11:26:05;95188.16;;;15.73;100.00
7662;BME280;30314;48.184;11.510;2023-08-06T11:28:32;95180.63;;;15.63;100.00
7662;BME280;30314;48.184;11.510;2023-08-06T11:30:59;95195.91;;;15.66;100.00
7662;BME280;30314;48.184;11.510;2023-08-06T11:33:28;95196.25;;;15.52;100.00
7662;BME280;30314;48.184;11.510;2023-08-06T11:35:57;95198.94;;;15.52;100.00
7662;BME280;30314;48.184;11.510;2023-08-06T11:38:26;95202.13;;;15.58;100.00
7662;BME280;30314;48.184;11.510;2023-08-06T11:40:53;95197.53;;;15.96;100.00
7662;BME280;30314;48.184;11.510;2023-08-06T11:43:21;95193.41;;;16.11;100.00
7662;BME280;30314;48.184;11.510;2023-08-06T11:45:51;95202.50;;;16.10;100.00
7662;BME280;30314;48.184;11.510;2023-08-06T11:48:20;95201.19;;;16.03;100.00
7662;BME280;30314;48.184;11.510;2023-08-06T11:50:47;95201.75;;;15.97;100.00
7662;BME280;30314;48.184;11.510;2023-08-06T11:53:14;95208.19;;;15.96;100.00
7662;BME280;30314;48.184;11.510;2023-08-06T11:55:41;95208.75;;;15.89;100.00
7662;BME280;30314;48.184;11.510;2023-08-06T11:58:09;95214.81;;;16.02;100.00
7662;BME280;30314;48.184;11.510;2023-08-06T12:00:37;95204.16;;;16.02;100.00
7662;BME280;30314;48.184;11.510;2023-08-06T12:03:04;95206.25;;;16.09;100.00
7662;BME280;30314;48.184;11.510;2023-08-06T12:05:32;95232.03;;;16.04;100.00
7662;BME280;30314;48.184;11.510;2023-08-06T12:08:02;95227.69;;;16.00;100.00
7662;BME280;30314;48.184;11.510;2023-08-06T12:10:31;95220.63;;;15.91;100.00
7662;BME280;30314;48.184;11.510;2023-08-06T12:12:58;95219.84;;;15.78;100.00
7662;BME280;30314;48.184;11.510;2023-08-06T12:15:25;95217.19;;;15.91;100.00
7662;BME280;30314;48.184;11.510;2023-08-06T12:17:51;95210.97;;;15.99;100.00
7662;BME280;30314;48.184;11.510;2023-08-06T12:20:18;95206.50;;;16.03;100.00
7662;BME280;30314;48.184;11.510;2023-08-06T12:22:45;95222.06;;;16.01;100.00
7662;BME280;30314;48.184;11.510;2023-08-06T12:25:13;95214.63;;;15.95;100.00
7662;BME280;30314;48.184;11.510;2023-08-06T12:31:05;95216.19;;;15.83;100.00
7662;BME280;30314;48.184;11.510;2023-08-06T12:33:31;95210.63;;;15.88;100.00
7662;BME280;30314;48.184;11.510;2023-08-06T12:35:58;95207.97;;;15.76;100.00
7662;BME280;30314;48.184;11.510;2023-08-06T12:38:24;95205.13;;;15.69;100.00
7662;BME280;30314;48.184;11.510;2023-08-06T12:40:51;95214.34;;;15.59;100.00
7662;BME280;30314;48.184;11.510;2023-08-06T12:43:18;95222.53;;;15.54;100.00
7662;BME280;30314;48.184;11.510;2023-08-06T12:45:45;95233.72;;;15.47;100.00
7662;BME280;30314;48.184;11.510;2023-08-06T12:48:11;95251.34;;;15.52;100.00
7662;BME280;30314;48.184;11.510;2023-08-06T12:50:38;95244.31;;;15.34;100.00
7662;BME280;30314;48.184;11.510;2023-08-06T12:53:04;95244.09;;;15.27;100.00
7662;BME280;30314;48.184;11.510;2023-08-06T12:55:32;95235.88;;;15.20;100.00
7662;BME280;30314;48.184;11.510;2023-08-06T12:57:59;95236.56;;;15.29;100.00
7662;BME280;30314;48.184;11.510;2023-08-06T13:00:26;95242.63;;;15.51;100.00
7662;BME280;30314;48.184;11.510;2023-08-06T13:02:53;95240.38;;;15.53;100.00
7662;BME280;30314;48.184;11.510;2023-08-06T13:05:20;95250.25;;;15.53;100.00
7662;BME280;30314;48.184;11.510;2023-08-06T13:07:47;95239.97;;;15.63;100.00
7662;BME280;30314;48.184;11.510;2023-08-06T13:10:13;95238.72;;;15.73;100.00